sensor_id;sensor_type;location;lat;lon;timestamp;P1;durP1;ratioP1;P2;durP2;ratioP2
10383;SDS011;5238;43.508;4.980;2023-09-18T00:01:22;14.77;;;5.70;;
10383;SDS011;5238;43.508;4.980;2023-09-18T00:03:49;14.73;;;5.90;;
10383;SDS011;5238;43.508;4.980;2023-09-18T00:06:16;13.73;;;5.90;;
10383;SDS011;5238;43.508;4.980;2023-09-18T00:08:43;14.90;;;5.90;;
10383;SDS011;5238;43.508;4.980;2023-09-18T00:11:11;11.13;;;5.78;;
10383;SDS011;5238;43.508;4.980;2023-09-18T00:13:38;11.75;;;5.82;;
10383;SDS011;5238;43.508;4.980;2023-09-18T00:16:05;12.93;;;5.50;;
10383;SDS011;5238;43.508;4.980;2023-09-18T00:18:32;10.65;;;5.65;;
10383;SDS011;5238;43.508;4.980;2023-09-18T00:20:59;13.48;;;5.90;;
10383;SDS011;5238;43.508;4.980;2023-09-18T00:23:26;12.23;;;5.80;;
10383;SDS011;5238;43.508;4.980;2023-09-18T00:25:53;15.27;;;5.53;;
10383;SDS011;5238;43.508;4.980;2023-09-18T00:28:21;15.98;;;6.30;;
10383;SDS011;5238;43.508;4.980;2023-09-18T00:30:48;14.93;;;5.80;;
10383;SDS011;5238;43.508;4.980;2023-09-18T00:33:16;13.05;;;6.07;;
10383;SDS011;5238;43.508;4.980;2023-09-18T00:35:45;17.13;;;6.07;;
10383;SDS011;5238;43.508;4.980;2023-09-18T00:38:12;18.45;;;5.85;;
10383;SDS011;5238;43.508;4.980;2023-09-18T00:40:39;13.85;;;6.10;;
10383;SDS011;5238;43.508;4.980;2023-09-18T00:43:07;15.88;;;6.05;;
10383;SDS011;5238;43.508;4.980;2023-09-18T00:45:36;13.57;;;6.00;;
10383;SDS011;5238;43.508;4.980;2023-09-18T00:48:07;20.00;;;6.22;;
10383;SDS011;5238;43.508;4.980;2023-09-18T00:50:34;15.43;;;6.00;;
10383;SDS011;5238;43.508;4.980;2023-09-18T00:53:02;18.70;;;6.30;;
10383;SDS011;5238;43.508;4.980;2023-09-18T00:55:29;18.30;;;5.97;;
10383;SDS011;5238;43.508;4.980;2023-09-18T00:57:57;19.52;;;6.20;;
10383;SDS011;5238;43.508;4.980;2023-09-18T01:00:24;20.15;;;7.25;;
10383;SDS011;5238;43.508;4.980;2023-09-18T01:02:52;19.88;;;6.53;;
10383;SDS011;5238;43.508;4.980;2023-09-18T01:05:19;18.02;;;5.82;;
10383;SDS011;5238;43.508;4.980;2023-09-18T01:07:46;23.90;;;6.18;;
10383;SDS011;5238;43.508;4.980;2023-09-18T01:10:13;18.63;;;6.28;;
10383;SDS011;5238;43.508;4.980;2023-09-18T01:12:44;16.67;;;6.05;;
10383;SDS011;5238;43.508;4.980;2023-09-18T01:15:15;19.30;;;6.45;;
10383;SDS011;5238;43.508;4.980;2023-09-18T01:17:48;25.38;;;7.47;;
10383;SDS011;5238;43.508;4.980;2023-09-18T01:20:17;18.27;;;6.93;;
10383;SDS011;5238;43.508;4.980;2023-09-18T01:22:45;18.25;;;7.10;;
10383;SDS011;5238;43.508;4.980;2023-09-18T01:25:14;24.65;;;7.03;;
10383;SDS011;5238;43.508;4.980;2023-09-18T01:27:41;22.52;;;7.32;;
10383;SDS011;5238;43.508;4.980;2023-09-18T01:30:09;20.35;;;6.95;;
10383;SDS011;5238;43.508;4.980;2023-09-18T01:32:37;22.05;;;7.18;;
10383;SDS011;5238;43.508;4.980;2023-09-18T01:35:05;22.70;;;7.55;;
10383;SDS011;5238;43.508;4.980;2023-09-18T01:37:33;20.95;;;7.18;;
10383;SDS011;5238;43.508;4.980;2023-09-18T01:40:02;20.42;;;7.38;;
10383;SDS011;5238;43.508;4.980;2023-09-18T01:42:33;22.67;;;7.55;;
10383;SDS011;5238;43.508;4.980;2023-09-18T01:45:01;25.90;;;7.70;;
10383;SDS011;5238;43.508;4.980;2023-09-18T01:47:30;22.02;;;7.88;;
10383;SDS011;5238;43.508;4.980;2023-09-18T01:49:57;27.35;;;7.65;;
10383;SDS011;5238;43.508;4.980;2023-09-18T01:52:24;33.33;;;8.07;;
10383;SDS011;5238;43.508;4.980;2023-09-18T01:54:51;27.52;;;8.13;;
10383;SDS011;5238;43.508;4.980;2023-09-18T01:57:19;24.13;;;7.50;;
10383;SDS011;5238;43.508;4.980;2023-09-18T01:59:46;24.52;;;7.63;;
10383;SDS011;5238;43.508;4.980;2023-09-18T02:02:13;22.50;;;7.57;;
10383;SDS011;5238;43.508;4.980;2023-09-18T02:04:40;25.25;;;8.27;;
10383;SDS011;5238;43.508;4.980;2023-09-18T02:07:07;24.98;;;8.40;;
10383;SDS011;5238;43.508;4.980;2023-09-18T02:09:35;25.10;;;8.00;;
10383;SDS011;5238;43.508;4.980;2023-09-18T02:12:02;21.30;;;7.68;;
10383;SDS011;5238;43.508;4.980;2023-09-18T02:14:31;25.33;;;8.13;;
10383;SDS011;5238;43.508;4.980;2023-09-18T02:16:59;20.17;;;7.45;;
10383;SDS011;5238;43.508;4.980;2023-09-18T02:19:26;22.90;;;8.07;;
10383;SDS011;5238;43.508;4.980;2023-09-18T02:21:55;32.88;;;8.98;;
10383;SDS011;5238;43.508;4.980;2023-09-18T02:24:22;19.38;;;8.05;;
10383;SDS011;5238;43.508;4.980;2023-09-18T02:26:49;21.83;;;8.40;;
10383;SDS011;5238;43.508;4.980;2023-09-18T02:29:16;22.73;;;7.45;;
10383;SDS011;5238;43.508;4.980;2023-09-18T02:31:45;22.63;;;8.05;;
10383;SDS011;5238;43.508;4.980;2023-09-18T02:34:12;23.52;;;9.02;;
10383;SDS011;5238;43.508;4.980;2023-09-18T02:36:39;22.40;;;8.25;;
10383;SDS011;5238;43.508;4.980;2023-09-18T02:39:06;27.10;;;8.30;;
10383;SDS011;5238;43.508;4.980;2023-09-18T02:41:33;24.85;;;8.20;;
10383;SDS011;5238;43.508;4.980;2023-09-18T02:44:00;18.45;;;7.85;;
10383;SDS011;5238;43.508;4.980;2023-09-18T02:46:27;27.83;;;8.23;;
10383;SDS011;5238;43.508;4.980;2023-09-18T02:48:55;29.05;;;8.88;;
10383;SDS011;5238;43.508;4.980;2023-09-18T02:51:22;24.48;;;9.00;;
10383;SDS011;5238;43.508;4.980;2023-09-18T02:53:49;23.55;;;8.27;;
10383;SDS011;5238;43.508;4.980;2023-09-18T02:56:16;28.95;;;8.70;;
10383;SDS011;5238;43.508;4.980;2023-09-18T02:58:43;30.90;;;8.00;;
10383;SDS011;5238;43.508;4.980;2023-09-18T03:01:10;29.38;;;9.30;;
10383;SDS011;5238;43.508;4.980;2023-09-18T03:03:37;28.45;;;8.30;;
10383;SDS011;5238;43.508;4.980;2023-09-18T03:06:08;29.92;;;8.70;;
10383;SDS011;5238;43.508;4.980;2023-09-18T03:08:35;27.88;;;8.88;;
10383;SDS011;5238;43.508;4.980;2023-09-18T03:11:02;27.83;;;8.90;;
10383;SDS011;5238;43.508;4.980;2023-09-18T03:13:29;32.20;;;9.32;;
10383;SDS011;5238;43.508;4.980;2023-09-18T03:15:57;29.48;;;9.15;;
10383;SDS011;5238;43.508;4.980;2023-09-18T03:18:24;25.75;;;8.90;;
10383;SDS011;5238;43.508;4.980;2023-09-18T03:20:51;27.50;;;9.25;;
10383;SDS011;5238;43.508;4.980;2023-09-18T03:23:19;24.67;;;9.00;;
10383;SDS011;5238;43.508;4.980;2023-09-18T03:25:46;28.85;;;8.55;;
10383;SDS011;5238;43.508;4.980;2023-09-18T03:28:13;26.50;;;8.98;;
10383;SDS011;5238;43.508;4.980;2023-09-18T03:30:40;33.53;;;9.73;;
10383;SDS011;5238;43.508;4.980;2023-09-18T03:33:07;26.60;;;9.75;;
10383;SDS011;5238;43.508;4.980;2023-09-18T03:35:44;26.77;;;8.18;;
10383;SDS011;5238;43.508;4.980;2023-09-18T03:38:12;24.45;;;9.38;;
10383;SDS011;5238;43.508;4.980;2023-09-18T03:40:41;28.40;;;9.63;;
10383;SDS011;5238;43.508;4.980;2023-09-18T03:43:08;28.48;;;9.18;;
10383;SDS011;5238;43.508;4.980;2023-09-18T03:45:35;31.48;;;9.23;;
10383;SDS011;5238;43.508;4.980;2023-09-18T03:48:03;31.25;;;10.18;;
10383;SDS011;5238;43.508;4.980;2023-09-18T03:50:30;28.65;;;8.93;;
10383;SDS011;5238;43.508;4.980;2023-09-18T03:52:57;19.27;;;8.70;;
10383;SDS011;5238;43.508;4.980;2023-09-18T03:55:24;26.25;;;8.60;;
10383;SDS011;5238;43.508;4.980;2023-09-18T03:57:53;26.65;;;8.70;;
10383;SDS011;5238;43.508;4.980;2023-09-18T04:00:21;30.10;;;8.63;;
10383;SDS011;5238;43.508;4.980;2023-09-18T04:02:48;31.38;;;9.73;;
10383;SDS011;5238;43.508;4.980;2023-09-18T04:05:15;26.30;;;8.85;;
10383;SDS011;5238;43.508;4.980;2023-09-18T04:07:42;32.92;;;8.68;;
10383;SDS011;5238;43.508;4.980;2023-09-18T04:10:11;26.27;;;8.13;;
10383;SDS011;5238;43.508;4.980;2023-09-18T04:12:43;29.33;;;8.25;;
10383;SDS011;5238;43.508;4.980;2023-09-18T04:15:13;25.65;;;7.95;;
10383;SDS011;5238;43.508;4.980;2023-09-18T04:17:42;24.45;;;7.97;;
10383;SDS011;5238;43.508;4.980;2023-09-18T04:20:09;36.25;;;9.50;;
10383;SDS011;5238;43.508;4.980;2023-09-18T04:22:44;32.67;;;8.32;;
10383;SDS011;5238;43.508;4.980;2023-09-18T04:25:14;23.92;;;7.90;;
10383;SDS011;5238;43.508;4.980;2023-09-18T04:27:41;28.85;;;8.02;;
10383;SDS011;5238;43.508;4.980;2023-09-18T04:30:09;29.45;;;7.93;;
10383;SDS011;5238;43.508;4.980;2023-09-18T04:32:37;24.08;;;8.02;;
10383;SDS011;5238;43.508;4.980;2023-09-18T04:35:05;29.02;;;8.35;;
10383;SDS011;5238;43.508;4.980;2023-09-18T04:37:35;22.92;;;7.40;;
10383;SDS011;5238;43.508;4.980;2023-09-18T04:40:04;27.50;;;8.23;;
10383;SDS011;5238;43.508;4.980;2023-09-18T04:42:34;27.35;;;8.13;;
10383;SDS011;5238;43.508;4.980;2023-09-18T04:45:01;36.58;;;9.10;;
10383;SDS011;5238;43.508;4.980;2023-09-18T04:47:29;24.38;;;8.50;;
10383;SDS011;5238;43.508;4.980;2023-09-18T04:49:57;25.23;;;8.50;;
10383;SDS011;5238;43.508;4.980;2023-09-18T04:52:24;28.40;;;8.60;;
10383;SDS011;5238;43.508;4.980;2023-09-18T04:54:51;29.73;;;8.77;;
10383;SDS011;5238;43.508;4.980;2023-09-18T04:57:19;24.05;;;7.78;;
10383;SDS011;5238;43.508;4.980;2023-09-18T04:59:47;22.05;;;7.93;;
10383;SDS011;5238;43.508;4.980;2023-09-18T05:02:14;26.65;;;8.45;;
10383;SDS011;5238;43.508;4.980;2023-09-18T05:04:41;33.75;;;8.48;;
10383;SDS011;5238;43.508;4.980;2023-09-18T05:07:09;24.17;;;8.52;;
10383;SDS011;5238;43.508;4.980;2023-09-18T05:09:36;24.23;;;8.25;;
10383;SDS011;5238;43.508;4.980;2023-09-18T05:12:05;29.25;;;8.27;;
10383;SDS011;5238;43.508;4.980;2023-09-18T05:14:38;21.23;;;6.88;;
10383;SDS011;5238;43.508;4.980;2023-09-18T05:17:05;24.38;;;7.38;;
10383;SDS011;5238;43.508;4.980;2023-09-18T05:19:32;22.88;;;6.65;;
10383;SDS011;5238;43.508;4.980;2023-09-18T05:21:59;26.40;;;8.02;;
10383;SDS011;5238;43.508;4.980;2023-09-18T05:24:28;21.05;;;7.22;;
10383;SDS011;5238;43.508;4.980;2023-09-18T05:26:55;22.92;;;7.53;;
10383;SDS011;5238;43.508;4.980;2023-09-18T05:29:22;21.00;;;7.18;;
10383;SDS011;5238;43.508;4.980;2023-09-18T05:31:49;21.30;;;7.22;;
10383;SDS011;5238;43.508;4.980;2023-09-18T05:34:16;18.10;;;7.10;;
10383;SDS011;5238;43.508;4.980;2023-09-18T05:36:43;27.45;;;7.95;;
10383;SDS011;5238;43.508;4.980;2023-09-18T05:39:10;24.67;;;8.10;;
10383;SDS011;5238;43.508;4.980;2023-09-18T05:41:39;23.00;;;7.68;;
10383;SDS011;5238;43.508;4.980;2023-09-18T05:44:06;19.33;;;7.63;;
10383;SDS011;5238;43.508;4.980;2023-09-18T05:46:34;17.65;;;7.15;;
10383;SDS011;5238;43.508;4.980;2023-09-18T05:49:01;22.25;;;7.50;;
10383;SDS011;5238;43.508;4.980;2023-09-18T05:51:29;20.40;;;7.43;;
10383;SDS011;5238;43.508;4.980;2023-09-18T05:53:57;21.65;;;7.60;;
10383;SDS011;5238;43.508;4.980;2023-09-18T05:56:25;28.48;;;7.97;;
10383;SDS011;5238;43.508;4.980;2023-09-18T05:58:53;22.95;;;8.45;;
10383;SDS011;5238;43.508;4.980;2023-09-18T06:01:20;18.25;;;7.72;;
10383;SDS011;5238;43.508;4.980;2023-09-18T06:03:47;19.92;;;7.10;;
10383;SDS011;5238;43.508;4.980;2023-09-18T06:06:14;22.23;;;8.20;;
10383;SDS011;5238;43.508;4.980;2023-09-18T06:08:41;20.85;;;7.80;;
10383;SDS011;5238;43.508;4.980;2023-09-18T06:11:08;24.50;;;8.13;;
10383;SDS011;5238;43.508;4.980;2023-09-18T06:13:35;23.10;;;7.60;;
10383;SDS011;5238;43.508;4.980;2023-09-18T06:16:04;21.08;;;7.57;;
10383;SDS011;5238;43.508;4.980;2023-09-18T06:18:33;20.33;;;7.80;;
10383;SDS011;5238;43.508;4.980;2023-09-18T06:21:03;17.48;;;7.07;;
10383;SDS011;5238;43.508;4.980;2023-09-18T06:23:30;22.10;;;7.88;;
10383;SDS011;5238;43.508;4.980;2023-09-18T06:25:57;20.13;;;7.80;;
10383;SDS011;5238;43.508;4.980;2023-09-18T06:28:24;17.02;;;6.82;;
10383;SDS011;5238;43.508;4.980;2023-09-18T06:30:52;18.60;;;7.35;;
10383;SDS011;5238;43.508;4.980;2023-09-18T06:33:20;21.52;;;7.47;;
10383;SDS011;5238;43.508;4.980;2023-09-18T06:35:47;25.13;;;7.40;;
10383;SDS011;5238;43.508;4.980;2023-09-18T06:38:16;17.67;;;7.18;;
10383;SDS011;5238;43.508;4.980;2023-09-18T06:40:43;19.83;;;8.20;;
10383;SDS011;5238;43.508;4.980;2023-09-18T06:43:10;18.45;;;7.32;;
10383;SDS011;5238;43.508;4.980;2023-09-18T06:45:37;22.23;;;7.68;;
10383;SDS011;5238;43.508;4.980;2023-09-18T06:48:04;20.65;;;7.57;;
10383;SDS011;5238;43.508;4.980;2023-09-18T06:50:33;21.38;;;6.53;;
10383;SDS011;5238;43.508;4.980;2023-09-18T06:53:01;23.45;;;8.57;;
10383;SDS011;5238;43.508;4.980;2023-09-18T06:55:28;17.90;;;7.15;;
10383;SDS011;5238;43.508;4.980;2023-09-18T06:57:55;22.08;;;7.32;;
10383;SDS011;5238;43.508;4.980;2023-09-18T07:00:23;21.00;;;7.35;;
10383;SDS011;5238;43.508;4.980;2023-09-18T07:02:50;17.60;;;7.57;;
10383;SDS011;5238;43.508;4.980;2023-09-18T07:05:17;16.50;;;6.32;;
10383;SDS011;5238;43.508;4.980;2023-09-18T07:07:46;19.92;;;7.05;;
10383;SDS011;5238;43.508;4.980;2023-09-18T07:10:13;23.50;;;7.03;;
10383;SDS011;5238;43.508;4.980;2023-09-18T07:12:39;19.50;;;6.60;;
10383;SDS011;5238;43.508;4.980;2023-09-18T07:15:07;22.92;;;8.40;;
10383;SDS011;5238;43.508;4.980;2023-09-18T07:17:34;19.55;;;6.82;;
10383;SDS011;5238;43.508;4.980;2023-09-18T07:20:01;20.88;;;6.53;;
10383;SDS011;5238;43.508;4.980;2023-09-18T07:22:35;16.00;;;6.50;;
10383;SDS011;5238;43.508;4.980;2023-09-18T07:25:05;19.25;;;7.00;;
10383;SDS011;5238;43.508;4.980;2023-09-18T07:27:33;25.10;;;7.03;;
10383;SDS011;5238;43.508;4.980;2023-09-18T07:30:01;20.17;;;6.43;;
10383;SDS011;5238;43.508;4.980;2023-09-18T07:32:29;29.33;;;7.68;;
10383;SDS011;5238;43.508;4.980;2023-09-18T07:34:56;24.42;;;7.30;;
10383;SDS011;5238;43.508;4.980;2023-09-18T07:37:23;24.40;;;6.82;;
10383;SDS011;5238;43.508;4.980;2023-09-18T07:39:50;25.15;;;7.50;;
10383;SDS011;5238;43.508;4.980;2023-09-18T07:42:18;21.92;;;6.95;;
10383;SDS011;5238;43.508;4.980;2023-09-18T07:44:45;21.23;;;6.85;;
10383;SDS011;5238;43.508;4.980;2023-09-18T07:47:12;25.20;;;6.30;;
10383;SDS011;5238;43.508;4.980;2023-09-18T07:49:39;20.98;;;6.07;;
10383;SDS011;5238;43.508;4.980;2023-09-18T07:52:06;29.60;;;7.00;;
10383;SDS011;5238;43.508;4.980;2023-09-18T07:54:34;23.83;;;7.43;;
10383;SDS011;5238;43.508;4.980;2023-09-18T07:57:01;22.20;;;6.72;;
10383;SDS011;5238;43.508;4.980;2023-09-18T07:59:29;24.58;;;7.05;;
10383;SDS011;5238;43.508;4.980;2023-09-18T08:01:56;25.17;;;7.35;;
10383;SDS011;5238;43.508;4.980;2023-09-18T08:04:23;23.48;;;6.82;;
10383;SDS011;5238;43.508;4.980;2023-09-18T08:06:49;26.58;;;7.03;;
10383;SDS011;5238;43.508;4.980;2023-09-18T08:09:17;26.98;;;6.53;;
10383;SDS011;5238;43.508;4.980;2023-09-18T08:11:44;26.92;;;7.15;;
10383;SDS011;5238;43.508;4.980;2023-09-18T08:14:11;26.10;;;7.68;;
10383;SDS011;5238;43.508;4.980;2023-09-18T08:16:39;23.13;;;7.82;;
10383;SDS011;5238;43.508;4.980;2023-09-18T08:19:06;26.05;;;7.25;;
10383;SDS011;5238;43.508;4.980;2023-09-18T08:21:33;25.67;;;7.07;;
10383;SDS011;5238;43.508;4.980;2023-09-18T08:24:00;24.30;;;6.90;;
10383;SDS011;5238;43.508;4.980;2023-09-18T08:26:27;34.92;;;8.55;;
10383;SDS011;5238;43.508;4.980;2023-09-18T08:28:54;25.75;;;7.45;;
10383;SDS011;5238;43.508;4.980;2023-09-18T08:31:21;26.77;;;7.95;;
10383;SDS011;5238;43.508;4.980;2023-09-18T08:33:50;21.92;;;6.80;;
10383;SDS011;5238;43.508;4.980;2023-09-18T08:36:17;22.88;;;7.50;;
10383;SDS011;5238;43.508;4.980;2023-09-18T08:38:44;24.65;;;7.15;;
10383;SDS011;5238;43.508;4.980;2023-09-18T08:41:14;29.42;;;7.72;;
10383;SDS011;5238;43.508;4.980;2023-09-18T08:43:45;30.13;;;7.32;;
10383;SDS011;5238;43.508;4.980;2023-09-18T08:46:15;27.52;;;8.13;;
10383;SDS011;5238;43.508;4.980;2023-09-18T08:48:43;31.75;;;8.18;;
10383;SDS011;5238;43.508;4.980;2023-09-18T08:51:12;35.95;;;8.13;;
10383;SDS011;5238;43.508;4.980;2023-09-18T08:53:40;29.88;;;7.15;;
10383;SDS011;5238;43.508;4.980;2023-09-18T08:56:07;28.15;;;7.85;;
10383;SDS011;5238;43.508;4.980;2023-09-18T08:58:35;26.05;;;7.35;;
10383;SDS011;5238;43.508;4.980;2023-09-18T09:01:05;26.55;;;7.32;;
10383;SDS011;5238;43.508;4.980;2023-09-18T09:03:34;28.30;;;8.23;;
10383;SDS011;5238;43.508;4.980;2023-09-18T09:06:01;30.00;;;8.25;;
10383;SDS011;5238;43.508;4.980;2023-09-18T09:08:30;39.42;;;7.30;;
10383;SDS011;5238;43.508;4.980;2023-09-18T09:10:57;27.88;;;8.65;;
10383;SDS011;5238;43.508;4.980;2023-09-18T09:13:24;34.97;;;8.48;;
10383;SDS011;5238;43.508;4.980;2023-09-18T09:15:52;29.10;;;7.57;;
10383;SDS011;5238;43.508;4.980;2023-09-18T09:18:21;28.38;;;6.88;;
10383;SDS011;5238;43.508;4.980;2023-09-18T09:20:54;33.00;;;8.57;;
10383;SDS011;5238;43.508;4.980;2023-09-18T09:23:25;30.75;;;7.70;;
10383;SDS011;5238;43.508;4.980;2023-09-18T09:25:54;26.90;;;7.13;;
10383;SDS011;5238;43.508;4.980;2023-09-18T09:28:38;34.10;;;7.40;;
10383;SDS011;5238;43.508;4.980;2023-09-18T09:31:05;29.08;;;6.95;;
10383;SDS011;5238;43.508;4.980;2023-09-18T09:33:32;30.92;;;7.55;;
10383;SDS011;5238;43.508;4.980;2023-09-18T09:35:59;36.83;;;9.07;;
10383;SDS011;5238;43.508;4.980;2023-09-18T09:38:29;35.58;;;8.30;;
10383;SDS011;5238;43.508;4.980;2023-09-18T09:41:00;28.30;;;7.90;;
10383;SDS011;5238;43.508;4.980;2023-09-18T09:43:27;32.60;;;8.07;;
10383;SDS011;5238;43.508;4.980;2023-09-18T09:45:57;31.23;;;8.18;;
10383;SDS011;5238;43.508;4.980;2023-09-18T09:48:25;29.52;;;8.07;;
10383;SDS011;5238;43.508;4.980;2023-09-18T09:50:52;32.65;;;7.97;;
10383;SDS011;5238;43.508;4.980;2023-09-18T09:53:41;37.38;;;8.13;;
10383;SDS011;5238;43.508;4.980;2023-09-18T09:56:10;29.23;;;8.60;;
10383;SDS011;5238;43.508;4.980;2023-09-18T09:58:37;37.83;;;8.60;;
10383;SDS011;5238;43.508;4.980;2023-09-18T10:01:09;34.53;;;7.72;;
10383;SDS011;5238;43.508;4.980;2023-09-18T10:03:43;31.50;;;7.63;;
10383;SDS011;5238;43.508;4.980;2023-09-18T10:06:10;32.67;;;7.88;;
10383;SDS011;5238;43.508;4.980;2023-09-18T10:08:38;38.05;;;8.35;;
10383;SDS011;5238;43.508;4.980;2023-09-18T10:11:06;34.65;;;7.32;;
10383;SDS011;5238;43.508;4.980;2023-09-18T10:13:39;39.85;;;8.70;;
10383;SDS011;5238;43.508;4.980;2023-09-18T10:16:11;33.63;;;8.38;;
10383;SDS011;5238;43.508;4.980;2023-09-18T10:18:45;47.50;;;9.63;;
10383;SDS011;5238;43.508;4.980;2023-09-18T10:21:22;42.42;;;8.30;;
10383;SDS011;5238;43.508;4.980;2023-09-18T10:23:58;39.67;;;8.13;;
10383;SDS011;5238;43.508;4.980;2023-09-18T10:26:32;35.60;;;9.13;;
10383;SDS011;5238;43.508;4.980;2023-09-18T10:29:05;39.80;;;9.27;;
10383;SDS011;5238;43.508;4.980;2023-09-18T10:31:34;41.67;;;7.75;;
10383;SDS011;5238;43.508;4.980;2023-09-18T10:34:02;31.85;;;7.53;;
10383;SDS011;5238;43.508;4.980;2023-09-18T10:36:31;32.92;;;7.65;;
10383;SDS011;5238;43.508;4.980;2023-09-18T10:38:59;43.78;;;8.45;;
10383;SDS011;5238;43.508;4.980;2023-09-18T10:41:31;41.90;;;8.95;;
10383;SDS011;5238;43.508;4.980;2023-09-18T10:43:59;34.40;;;8.98;;
10383;SDS011;5238;43.508;4.980;2023-09-18T10:46:30;42.00;;;8.75;;
10383;SDS011;5238;43.508;4.980;2023-09-18T10:48:58;35.78;;;7.70;;
10383;SDS011;5238;43.508;4.980;2023-09-18T10:51:28;36.08;;;8.13;;
10383;SDS011;5238;43.508;4.980;2023-09-18T10:53:57;38.70;;;8.57;;
10383;SDS011;5238;43.508;4.980;2023-09-18T10:56:24;37.03;;;8.60;;
10383;SDS011;5238;43.508;4.980;2023-09-18T10:59:01;34.63;;;8.73;;
10383;SDS011;5238;43.508;4.980;2023-09-18T11:01:33;50.67;;;9.02;;
10383;SDS011;5238;43.508;4.980;2023-09-18T11:04:02;36.10;;;7.68;;
10383;SDS011;5238;43.508;4.980;2023-09-18T11:06:41;38.13;;;8.95;;
10383;SDS011;5238;43.508;4.980;2023-09-18T11:09:31;37.50;;;8.48;;
10383;SDS011;5238;43.508;4.980;2023-09-18T11:12:06;37.58;;;8.95;;
10383;SDS011;5238;43.508;4.980;2023-09-18T11:14:41;40.55;;;8.30;;
10383;SDS011;5238;43.508;4.980;2023-09-18T11:20:03;37.25;;;7.60;;
10383;SDS011;5238;43.508;4.980;2023-09-18T11:22:38;29.23;;;6.95;;
10383;SDS011;5238;43.508;4.980;2023-09-18T11:27:56;45.97;;;9.18;;
10383;SDS011;5238;43.508;4.980;2023-09-18T11:30:23;42.65;;;7.93;;
10383;SDS011;5238;43.508;4.980;2023-09-18T11:32:52;38.97;;;7.82;;
10383;SDS011;5238;43.508;4.980;2023-09-18T11:35:20;39.72;;;7.65;;
10383;SDS011;5238;43.508;4.980;2023-09-18T11:37:48;38.53;;;8.38;;
10383;SDS011;5238;43.508;4.980;2023-09-18T11:40:31;34.22;;;7.68;;
10383;SDS011;5238;43.508;4.980;2023-09-18T11:43:18;33.38;;;7.85;;
10383;SDS011;5238;43.508;4.980;2023-09-18T11:45:50;34.42;;;8.00;;
10383;SDS011;5238;43.508;4.980;2023-09-18T11:48:20;34.70;;;8.07;;
10383;SDS011;5238;43.508;4.980;2023-09-18T11:50:51;36.88;;;8.27;;
10383;SDS011;5238;43.508;4.980;2023-09-18T11:53:19;36.80;;;7.75;;
10383;SDS011;5238;43.508;4.980;2023-09-18T11:55:46;37.88;;;7.85;;
10383;SDS011;5238;43.508;4.980;2023-09-18T11:58:13;38.20;;;7.65;;
10383;SDS011;5238;43.508;4.980;2023-09-18T12:00:41;38.35;;;7.82;;
10383;SDS011;5238;43.508;4.980;2023-09-18T12:03:15;37.50;;;7.95;;
10383;SDS011;5238;43.508;4.980;2023-09-18T12:05:52;37.20;;;7.72;;
10383;SDS011;5238;43.508;4.980;2023-09-18T12:08:22;43.60;;;8.85;;
10383;SDS011;5238;43.508;4.980;2023-09-18T12:10:51;37.53;;;8.35;;
10383;SDS011;5238;43.508;4.980;2023-09-18T12:13:18;34.40;;;8.13;;
10383;SDS011;5238;43.508;4.980;2023-09-18T12:15:46;42.47;;;8.23;;
10383;SDS011;5238;43.508;4.980;2023-09-18T12:18:14;38.30;;;8.52;;
10383;SDS011;5238;43.508;4.980;2023-09-18T12:20:45;33.80;;;8.27;;
10383;SDS011;5238;43.508;4.980;2023-09-18T12:23:14;37.78;;;8.73;;
10383;SDS011;5238;43.508;4.980;2023-09-18T12:25:41;40.05;;;8.18;;
10383;SDS011;5238;43.508;4.980;2023-09-18T12:28:11;35.60;;;8.77;;
10383;SDS011;5238;43.508;4.980;2023-09-18T12:30:40;35.85;;;7.30;;
10383;SDS011;5238;43.508;4.980;2023-09-18T12:33:07;39.30;;;8.05;;
10383;SDS011;5238;43.508;4.980;2023-09-18T12:35:34;30.70;;;7.00;;
10383;SDS011;5238;43.508;4.980;2023-09-18T12:38:03;36.97;;;8.50;;
10383;SDS011;5238;43.508;4.980;2023-09-18T12:40:43;41.45;;;8.52;;
10383;SDS011;5238;43.508;4.980;2023-09-18T12:43:11;32.17;;;7.20;;
10383;SDS011;5238;43.508;4.980;2023-09-18T12:45:40;32.08;;;7.60;;
10383;SDS011;5238;43.508;4.980;2023-09-18T12:48:08;32.30;;;8.25;;
10383;SDS011;5238;43.508;4.980;2023-09-18T12:50:37;38.45;;;7.55;;
10383;SDS011;5238;43.508;4.980;2023-09-18T12:53:10;36.83;;;8.70;;
10383;SDS011;5238;43.508;4.980;2023-09-18T12:55:39;36.90;;;8.07;;
10383;SDS011;5238;43.508;4.980;2023-09-18T12:58:10;33.00;;;7.35;;
10383;SDS011;5238;43.508;4.980;2023-09-18T13:00:43;37.78;;;7.75;;
10383;SDS011;5238;43.508;4.980;2023-09-18T13:03:12;38.80;;;7.85;;
10383;SDS011;5238;43.508;4.980;2023-09-18T13:05:39;37.88;;;7.63;;
10383;SDS011;5238;43.508;4.980;2023-09-18T13:08:06;37.20;;;7.88;;
10383;SDS011;5238;43.508;4.980;2023-09-18T13:10:44;40.58;;;7.72;;
10383;SDS011;5238;43.508;4.980;2023-09-18T13:13:18;37.22;;;7.47;;
10383;SDS011;5238;43.508;4.980;2023-09-18T13:15:46;33.42;;;7.47;;
10383;SDS011;5238;43.508;4.980;2023-09-18T13:18:14;33.53;;;8.35;;
10383;SDS011;5238;43.508;4.980;2023-09-18T13:20:42;39.80;;;8.15;;
10383;SDS011;5238;43.508;4.980;2023-09-18T13:23:10;35.42;;;7.85;;
10383;SDS011;5238;43.508;4.980;2023-09-18T13:25:38;33.05;;;7.50;;
10383;SDS011;5238;43.508;4.980;2023-09-18T13:28:10;38.00;;;7.68;;
10383;SDS011;5238;43.508;4.980;2023-09-18T13:30:39;39.50;;;7.50;;
10383;SDS011;5238;43.508;4.980;2023-09-18T13:33:07;32.95;;;7.80;;
10383;SDS011;5238;43.508;4.980;2023-09-18T13:35:35;33.08;;;7.40;;
10383;SDS011;5238;43.508;4.980;2023-09-18T13:38:04;28.00;;;7.07;;
10383;SDS011;5238;43.508;4.980;2023-09-18T13:40:33;33.03;;;7.32;;
10383;SDS011;5238;43.508;4.980;2023-09-18T13:43:01;27.92;;;6.45;;
10383;SDS011;5238;43.508;4.980;2023-09-18T13:45:30;26.88;;;6.05;;
10383;SDS011;5238;43.508;4.980;2023-09-18T13:47:57;33.35;;;7.57;;
10383;SDS011;5238;43.508;4.980;2023-09-18T13:50:25;26.88;;;6.75;;
10383;SDS011;5238;43.508;4.980;2023-09-18T13:52:52;31.00;;;6.68;;
10383;SDS011;5238;43.508;4.980;2023-09-18T13:55:19;26.92;;;6.93;;
10383;SDS011;5238;43.508;4.980;2023-09-18T13:57:47;35.83;;;7.40;;
10383;SDS011;5238;43.508;4.980;2023-09-18T14:00:14;32.35;;;7.13;;
10383;SDS011;5238;43.508;4.980;2023-09-18T14:02:43;29.38;;;7.78;;
10383;SDS011;5238;43.508;4.980;2023-09-18T14:05:10;32.10;;;7.07;;
10383;SDS011;5238;43.508;4.980;2023-09-18T14:07:38;23.15;;;6.55;;
10383;SDS011;5238;43.508;4.980;2023-09-18T14:10:07;27.70;;;6.22;;
10383;SDS011;5238;43.508;4.980;2023-09-18T14:12:35;29.02;;;6.75;;
10383;SDS011;5238;43.508;4.980;2023-09-18T14:15:03;30.48;;;7.22;;
10383;SDS011;5238;43.508;4.980;2023-09-18T14:17:31;25.38;;;6.35;;
10383;SDS011;5238;43.508;4.980;2023-09-18T14:19:59;26.00;;;6.20;;
10383;SDS011;5238;43.508;4.980;2023-09-18T14:22:30;27.13;;;6.90;;
10383;SDS011;5238;43.508;4.980;2023-09-18T14:24:57;27.42;;;6.30;;
10383;SDS011;5238;43.508;4.980;2023-09-18T14:27:23;30.77;;;6.78;;
10383;SDS011;5238;43.508;4.980;2023-09-18T14:29:50;27.13;;;6.68;;
10383;SDS011;5238;43.508;4.980;2023-09-18T14:32:18;22.27;;;6.72;;
10383;SDS011;5238;43.508;4.980;2023-09-18T14:34:45;28.95;;;6.85;;
10383;SDS011;5238;43.508;4.980;2023-09-18T14:37:13;20.17;;;5.78;;
10383;SDS011;5238;43.508;4.980;2023-09-18T14:39:40;24.83;;;6.32;;
10383;SDS011;5238;43.508;4.980;2023-09-18T14:42:07;22.67;;;6.40;;
10383;SDS011;5238;43.508;4.980;2023-09-18T14:44:35;20.35;;;5.78;;
10383;SDS011;5238;43.508;4.980;2023-09-18T14:47:05;17.33;;;5.47;;
10383;SDS011;5238;43.508;4.980;2023-09-18T14:49:32;26.83;;;6.50;;
10383;SDS011;5238;43.508;4.980;2023-09-18T14:51:59;19.17;;;5.30;;
10383;SDS011;5238;43.508;4.980;2023-09-18T14:54:27;18.88;;;5.53;;
10383;SDS011;5238;43.508;4.980;2023-09-18T14:56:54;20.35;;;5.60;;
10383;SDS011;5238;43.508;4.980;2023-09-18T14:59:21;21.63;;;5.90;;
10383;SDS011;5238;43.508;4.980;2023-09-18T15:01:48;14.80;;;5.50;;